createdAt,value
2019-03-30T00:01:16.537Z,27.75
2019-03-30T00:03:43.751Z,28.90
2019-03-30T00:06:10.963Z,24.10
2019-03-30T00:08:38.634Z,22.90
2019-03-30T00:11:06.159Z,21.85
2019-03-30T00:13:33.377Z,25.27
2019-03-30T00:16:02.226Z,18.87
2019-03-30T00:18:29.519Z,26.45
2019-03-30T00:20:59.540Z,23.12
2019-03-30T00:23:26.806Z,21.42
2019-03-30T00:25:54.020Z,21.02
2019-03-30T00:28:21.673Z,24.32
2019-03-30T00:30:48.929Z,22.30
2019-03-30T00:33:16.240Z,25.17
2019-03-30T00:35:43.754Z,26.00
2019-03-30T00:38:13.814Z,21.60
2019-03-30T00:40:41.147Z,24.53
2019-03-30T00:43:09.761Z,20.62
2019-03-30T00:45:37.021Z,22.20
2019-03-30T00:48:04.215Z,21.20
2019-03-30T00:50:31.643Z,19.67
2019-03-30T00:52:58.903Z,19.52
2019-03-30T00:55:26.111Z,19.25
2019-03-30T00:57:53.352Z,18.75
2019-03-30T01:00:20.647Z,21.55
2019-03-30T01:02:47.851Z,16.45
2019-03-30T01:05:18.439Z,20.80
2019-03-30T01:07:45.739Z,19.27
2019-03-30T01:10:13.204Z,21.73
2019-03-30T01:12:40.519Z,20.90
2019-03-30T01:15:08.431Z,21.45
2019-03-30T01:17:35.631Z,22.25
2019-03-30T01:20:05.647Z,23.02
2019-03-30T01:22:33.297Z,21.65
2019-03-30T01:25:00.816Z,22.48
2019-03-30T01:27:28.091Z,20.92
2019-03-30T01:29:55.776Z,19.92
2019-03-30T01:32:23.056Z,21.65
2019-03-30T01:34:50.274Z,21.25
2019-03-30T01:37:17.611Z,23.60
2019-03-30T01:39:44.803Z,21.25
2019-03-30T01:42:12.002Z,24.37
2019-03-30T01:44:40.785Z,23.40
2019-03-30T01:47:09.807Z,22.80
2019-03-30T01:49:37.958Z,25.32
2019-03-30T01:52:05.214Z,24.50
2019-03-30T01:54:32.849Z,25.50
2019-03-30T01:57:01.080Z,28.52
2019-03-30T01:59:28.411Z,22.77
2019-03-30T02:01:55.607Z,25.50
2019-03-30T02:04:22.847Z,23.10
2019-03-30T02:06:50.101Z,26.15
2019-03-30T02:09:17.321Z,26.60
2019-03-30T02:11:44.758Z,25.80
2019-03-30T02:14:13.180Z,26.23
2019-03-30T02:16:41.359Z,26.30
2019-03-30T02:19:08.571Z,22.45
2019-03-30T02:21:35.891Z,24.40
2019-03-30T02:24:03.142Z,23.02
2019-03-30T02:26:31.740Z,22.42
2019-03-30T02:28:58.975Z,24.82
2019-03-30T02:31:26.184Z,20.02
2019-03-30T02:33:53.379Z,19.40
2019-03-30T02:36:20.655Z,19.75
2019-03-30T02:38:48.936Z,20.82
2019-03-30T02:41:16.152Z,22.35
2019-03-30T02:43:43.415Z,23.18
2019-03-30T02:46:10.694Z,20.25
2019-03-30T02:48:40.010Z,21.10
2019-03-30T02:51:07.275Z,17.92
2019-03-30T02:53:34.483Z,20.08
2019-03-30T02:56:01.698Z,19.98
2019-03-30T02:58:29.234Z,23.42
2019-03-30T03:00:56.450Z,22.27
2019-03-30T03:03:23.654Z,21.10
2019-03-30T03:05:50.919Z,19.20
2019-03-30T03:08:18.115Z,23.62
2019-03-30T03:10:45.337Z,17.45
2019-03-30T03:13:13.093Z,20.72
2019-03-30T03:15:40.406Z,19.45
2019-03-30T03:18:07.613Z,26.75
2019-03-30T03:20:35.006Z,21.90
2019-03-30T03:23:02.200Z,23.85
2019-03-30T03:25:29.420Z,25.17
2019-03-30T03:27:57.111Z,21.95
2019-03-30T03:30:24.425Z,20.50
2019-03-30T03:32:51.648Z,21.55
2019-03-30T03:35:18.905Z,21.35
2019-03-30T03:37:46.515Z,19.80
2019-03-30T03:40:14.143Z,18.70
2019-03-30T03:42:41.439Z,20.12
2019-03-30T03:45:08.668Z,18.55
2019-03-30T03:47:35.901Z,22.95
2019-03-30T03:50:03.672Z,21.77
2019-03-30T03:52:30.906Z,24.63
2019-03-30T03:54:58.214Z,22.85
2019-03-30T03:57:25.784Z,22.15
2019-03-30T03:59:53.055Z,22.80
2019-03-30T04:02:21.300Z,22.35
2019-03-30T04:04:48.782Z,22.80
2019-03-30T04:07:16.189Z,23.27
2019-03-30T04:09:44.139Z,24.67
2019-03-30T04:12:11.404Z,24.00
2019-03-30T04:14:40.642Z,21.82
2019-03-30T04:17:07.960Z,24.20
2019-03-30T04:19:35.246Z,23.83
2019-03-30T04:22:02.504Z,23.90
2019-03-30T04:24:29.709Z,26.42
2019-03-30T04:26:57.273Z,24.12
2019-03-30T04:29:27.326Z,24.20
2019-03-30T04:31:54.525Z,31.02
2019-03-30T04:34:22.051Z,33.48
2019-03-30T04:36:51.076Z,31.10
2019-03-30T04:39:18.283Z,30.02
2019-03-30T04:41:45.548Z,29.65
2019-03-30T04:44:12.783Z,27.82
2019-03-30T04:46:39.997Z,26.00
2019-03-30T04:49:07.243Z,28.20
2019-03-30T04:51:34.484Z,37.83
2019-03-30T04:54:01.687Z,66.55
2019-03-30T04:56:28.960Z,68.75
2019-03-30T04:58:56.165Z,74.80
2019-03-30T05:01:23.380Z,80.55
2019-03-30T05:03:50.718Z,66.05
2019-03-30T05:06:18.035Z,76.95
2019-03-30T05:08:45.255Z,79.67
2019-03-30T05:11:12.524Z,79.50
2019-03-30T05:13:40.226Z,59.67
2019-03-30T05:16:08.020Z,47.38
2019-03-30T05:18:35.280Z,46.53
2019-03-30T05:21:02.508Z,44.58
2019-03-30T05:23:29.747Z,35.70
2019-03-30T05:25:57.030Z,45.78
2019-03-30T05:28:24.235Z,42.33
2019-03-30T05:30:51.558Z,41.58
2019-03-30T05:33:18.840Z,39.08
2019-03-30T05:35:52.861Z,33.73
2019-03-30T05:38:20.222Z,35.25
2019-03-30T05:40:47.912Z,46.10
2019-03-30T05:43:15.601Z,40.83
2019-03-30T05:45:42.876Z,47.08
2019-03-30T05:48:10.252Z,46.68
2019-03-30T05:50:37.488Z,48.33
2019-03-30T05:53:05.131Z,40.88
2019-03-30T05:55:32.359Z,40.60
2019-03-30T05:57:59.566Z,34.67
2019-03-30T06:00:26.942Z,31.00
2019-03-30T06:02:54.424Z,29.77
2019-03-30T06:05:21.649Z,31.45
2019-03-30T06:07:48.898Z,30.12
2019-03-30T06:10:16.564Z,36.25
2019-03-30T06:12:43.810Z,31.93
2019-03-30T06:15:11.590Z,34.50
2019-03-30T06:17:39.359Z,35.95
2019-03-30T06:20:06.618Z,34.60
2019-03-30T06:22:40.140Z,30.55
2019-03-30T06:25:03.059Z,31.65
2019-03-30T06:27:30.321Z,29.98
2019-03-30T06:30:14.151Z,31.45
2019-03-30T06:32:42.009Z,30.08
2019-03-30T06:35:09.264Z,32.03
2019-03-30T06:37:36.689Z,34.75
2019-03-30T06:40:05.278Z,30.72
2019-03-30T06:42:32.724Z,29.00
2019-03-30T06:44:59.987Z,30.97
2019-03-30T06:47:27.528Z,28.10
2019-03-30T06:49:55.084Z,28.60
2019-03-30T06:52:23.492Z,31.05
2019-03-30T06:54:50.720Z,28.55
2019-03-30T06:57:19.631Z,31.27
2019-03-30T06:59:47.295Z,31.27
2019-03-30T07:02:16.027Z,34.30
2019-03-30T07:04:43.429Z,28.32
2019-03-30T07:07:10.749Z,30.60
2019-03-30T07:09:39.498Z,35.73
2019-03-30T07:12:12.889Z,38.67
2019-03-30T07:14:39.330Z,44.55
2019-03-30T07:17:07.062Z,45.05
2019-03-30T07:19:34.856Z,41.42
2019-03-30T07:22:02.632Z,45.23
2019-03-30T07:24:29.928Z,45.17
2019-03-30T07:26:57.483Z,43.10
2019-03-30T07:29:26.072Z,40.80
2019-03-30T07:31:55.158Z,42.53
2019-03-30T07:34:22.483Z,43.02
2019-03-30T07:36:49.843Z,43.33
2019-03-30T07:39:17.079Z,42.03
2019-03-30T07:41:44.323Z,42.60
2019-03-30T07:44:11.711Z,43.13
2019-03-30T07:46:38.990Z,53.60
2019-03-30T07:49:06.618Z,56.70
2019-03-30T07:51:33.904Z,47.38
2019-03-30T07:54:01.127Z,87.78
2019-03-30T07:56:28.356Z,48.02
2019-03-30T07:58:56.025Z,41.15
2019-03-30T08:01:25.272Z,37.48
2019-03-30T08:03:52.418Z,39.98
2019-03-30T08:06:25.638Z,40.70
2019-03-30T08:09:18.923Z,42.62
2019-03-30T08:11:46.273Z,50.90
2019-03-30T08:14:13.547Z,43.15
2019-03-30T08:19:50.402Z,43.50
2019-03-30T08:22:18.327Z,39.08
2019-03-30T08:24:45.734Z,34.27
2019-03-30T08:27:14.185Z,45.88
2019-03-30T08:29:41.564Z,36.83
2019-03-30T08:32:08.851Z,38.78
2019-03-30T08:34:36.185Z,35.40
2019-03-30T08:37:03.798Z,36.77
2019-03-30T08:39:31.072Z,36.80
2019-03-30T08:41:59.202Z,38.05
2019-03-30T08:44:27.062Z,36.70
2019-03-30T08:46:57.973Z,41.80
2019-03-30T08:49:24.939Z,39.07
2019-03-30T08:51:52.283Z,38.35
2019-03-30T08:54:19.642Z,35.23
2019-03-30T08:56:47.035Z,47.30
2019-03-30T08:59:14.347Z,43.35
2019-03-30T09:01:43.904Z,40.33
2019-03-30T09:04:11.784Z,33.95
2019-03-30T09:06:39.174Z,34.20
2019-03-30T09:09:06.433Z,37.75
2019-03-30T09:11:37.454Z,33.10
2019-03-30T09:16:32.336Z,33.35
2019-03-30T09:18:59.834Z,33.65
2019-03-30T09:21:27.632Z,34.75
2019-03-30T09:24:08.737Z,35.55
2019-03-30T09:26:28.692Z,34.58
2019-03-30T09:28:56.132Z,32.78
2019-03-30T09:31:24.255Z,31.87
2019-03-30T09:33:53.554Z,34.90
2019-03-30T09:38:49.662Z,33.13
2019-03-30T09:41:17.273Z,31.73
2019-03-30T09:43:44.616Z,27.32
2019-03-30T09:46:12.929Z,30.37
2019-03-30T09:48:40.306Z,29.10
2019-03-30T09:51:08.113Z,27.95
2019-03-30T09:53:35.343Z,29.63
2019-03-30T09:56:02.621Z,28.12
2019-03-30T09:58:29.832Z,28.83
2019-03-30T10:00:57.055Z,25.88
2019-03-30T10:03:24.536Z,32.20
2019-03-30T10:05:51.792Z,27.93
2019-03-30T10:08:19.027Z,30.60
2019-03-30T10:10:46.647Z,27.25
2019-03-30T10:13:13.888Z,27.98
2019-03-30T10:15:41.293Z,25.62
2019-03-30T10:18:08.547Z,23.67
2019-03-30T10:20:35.813Z,24.77
2019-03-30T10:23:04.841Z,24.37
2019-03-30T10:25:32.143Z,24.00
2019-03-30T10:27:59.886Z,23.32
2019-03-30T10:30:27.547Z,21.77
2019-03-30T10:32:54.859Z,21.75
2019-03-30T10:35:22.325Z,21.90
2019-03-30T10:37:50.575Z,27.45
2019-03-30T10:40:20.709Z,19.82
2019-03-30T10:42:47.372Z,27.10
2019-03-30T10:45:15.003Z,23.30
2019-03-30T10:47:42.709Z,30.37
2019-03-30T10:50:11.900Z,21.52
2019-03-30T10:52:39.177Z,23.67
2019-03-30T10:55:06.581Z,24.20
2019-03-30T10:57:33.919Z,26.17
2019-03-30T11:00:01.266Z,26.80
2019-03-30T11:02:28.725Z,25.40
2019-03-30T11:04:56.062Z,44.60
2019-03-30T11:07:23.291Z,28.42
2019-03-30T11:09:50.606Z,29.72
2019-03-30T11:12:24.765Z,27.62
2019-03-30T11:14:52.130Z,26.93
2019-03-30T11:17:32.292Z,29.45
2019-03-30T11:20:03.351Z,26.33
2019-03-30T11:22:35.720Z,29.63
2019-03-30T11:25:09.232Z,25.12
2019-03-30T11:27:40.216Z,27.10
2019-03-30T11:30:13.339Z,25.88
2019-03-30T11:32:40.753Z,25.30
2019-03-30T11:35:09.294Z,26.62
2019-03-30T11:37:40.210Z,25.48
2019-03-30T11:40:22.951Z,25.05
2019-03-30T11:42:53.657Z,25.35
2019-03-30T11:45:22.126Z,26.45
2019-03-30T11:47:53.712Z,30.30
2019-03-30T11:50:23.161Z,26.93
2019-03-30T11:52:51.066Z,30.37
2019-03-30T11:55:21.985Z,33.63
2019-03-30T11:57:55.508Z,27.17
2019-03-30T12:00:24.248Z,24.20
2019-03-30T12:02:55.685Z,23.75
2019-03-30T12:05:31.916Z,27.80
2019-03-30T12:08:00.792Z,23.40
2019-03-30T12:10:30.267Z,25.32
2019-03-30T12:12:59.161Z,23.62
2019-03-30T12:15:27.149Z,23.20
2019-03-30T12:17:55.012Z,23.73
2019-03-30T12:20:31.726Z,29.40
2019-03-30T12:23:05.214Z,22.95
2019-03-30T12:31:16.983Z,25.32
2019-03-30T12:33:45.392Z,27.60
2019-03-30T12:36:13.865Z,25.27
2019-03-30T12:38:42.340Z,25.45
2019-03-30T12:41:09.717Z,27.62
2019-03-30T12:43:39.881Z,27.67
2019-03-30T12:46:07.324Z,37.93
2019-03-30T12:48:35.090Z,33.15
2019-03-30T12:51:03.199Z,34.60
2019-03-30T12:53:33.261Z,30.52
2019-03-30T12:56:02.778Z,31.80
2019-03-30T12:58:31.453Z,32.40
2019-03-30T13:01:02.476Z,33.18
2019-03-30T13:03:32.752Z,31.57
2019-03-30T13:06:00.240Z,31.80
2019-03-30T13:08:27.531Z,31.90
2019-03-30T13:10:57.375Z,36.40
2019-03-30T13:13:28.049Z,35.68
2019-03-30T13:15:56.448Z,33.20
2019-03-30T13:18:28.401Z,35.48
2019-03-30T13:20:55.717Z,31.57
2019-03-30T13:23:22.993Z,31.62
2019-03-30T13:26:02.765Z,37.60
2019-03-30T13:28:19.644Z,37.45
2019-03-30T13:30:46.922Z,32.42
2019-03-30T13:33:15.945Z,37.42
2019-03-30T13:35:43.333Z,33.45
2019-03-30T13:38:10.604Z,34.53
2019-03-30T13:40:41.143Z,34.10
2019-03-30T13:43:08.846Z,37.48
2019-03-30T13:45:36.128Z,34.40
2019-03-30T13:48:04.687Z,34.55
2019-03-30T13:50:32.015Z,36.40
2019-03-30T13:52:59.281Z,35.65
2019-03-30T13:55:27.028Z,40.35
2019-03-30T13:57:54.477Z,39.00
2019-03-30T14:00:21.741Z,45.60
2019-03-30T14:02:49.055Z,37.75
2019-03-30T14:05:16.527Z,37.88
2019-03-30T14:07:43.849Z,43.25
2019-03-30T14:10:11.653Z,38.23
2019-03-30T14:12:38.942Z,40.75
2019-03-30T14:15:09.181Z,37.48
2019-03-30T14:17:35.371Z,37.53
2019-03-30T14:20:03.658Z,37.93
2019-03-30T14:22:30.979Z,34.15
2019-03-30T14:24:58.217Z,42.98
2019-03-30T14:27:25.511Z,36.55
2019-03-30T14:29:54.385Z,33.53
2019-03-30T14:32:21.817Z,36.85
2019-03-30T14:34:49.566Z,39.78
2019-03-30T14:37:16.981Z,39.40
2019-03-30T14:39:44.264Z,36.10
2019-03-30T14:42:11.596Z,41.73
2019-03-30T14:44:38.827Z,39.78
2019-03-30T14:47:06.087Z,38.63
2019-03-30T14:49:36.369Z,35.30
2019-03-30T14:52:03.765Z,37.00
2019-03-30T14:54:31.000Z,35.33
2019-03-30T14:56:58.264Z,38.33
2019-03-30T14:59:25.904Z,43.85
2019-03-30T15:01:53.116Z,36.80
2019-03-30T15:04:20.448Z,37.63
2019-03-30T15:06:47.694Z,34.33
2019-03-30T15:09:14.911Z,36.58
2019-03-30T15:11:42.227Z,37.30
2019-03-30T15:14:09.920Z,41.13
2019-03-30T15:16:39.362Z,41.18
2019-03-30T15:19:06.739Z,40.98
2019-03-30T15:21:34.086Z,38.67
2019-03-30T15:24:01.979Z,40.58
2019-03-30T15:26:29.771Z,40.95
2019-03-30T15:28:57.091Z,46.30
2019-03-30T15:31:25.307Z,59.05
2019-03-30T15:33:53.477Z,43.58
2019-03-30T15:36:21.761Z,38.33
2019-03-30T15:38:48.986Z,41.98
2019-03-30T15:41:16.437Z,41.77
2019-03-30T15:43:44.967Z,39.83
2019-03-30T15:46:14.281Z,38.90
2019-03-30T15:48:41.447Z,43.48
2019-03-30T15:51:09.808Z,38.53
2019-03-30T15:53:37.517Z,36.88
2019-03-30T15:56:05.000Z,36.77
2019-03-30T15:58:32.274Z,51.80
2019-03-30T16:00:59.646Z,45.67
2019-03-30T16:03:26.955Z,42.33
2019-03-30T16:05:54.247Z,44.73
2019-03-30T16:08:21.471Z,43.23
2019-03-30T16:10:52.351Z,45.48
2019-03-30T16:13:19.017Z,52.60
2019-03-30T16:15:46.416Z,52.43
2019-03-30T16:18:13.684Z,49.95
2019-03-30T16:20:42.412Z,46.53
2019-03-30T16:23:11.547Z,45.98
2019-03-30T16:25:39.120Z,45.50
2019-03-30T16:28:06.533Z,58.78
2019-03-30T16:30:33.903Z,54.53
2019-03-30T16:33:01.503Z,53.73
2019-03-30T16:35:41.997Z,52.45
2019-03-30T16:38:09.713Z,41.48
2019-03-30T16:40:39.128Z,51.53
2019-03-30T16:43:08.712Z,55.12
2019-03-30T16:45:36.401Z,50.28
2019-03-30T16:48:03.807Z,48.10
2019-03-30T16:50:31.176Z,53.20
2019-03-30T16:52:58.507Z,50.38
2019-03-30T16:55:25.833Z,52.50
2019-03-30T16:57:54.138Z,56.83
2019-03-30T17:00:21.463Z,51.28
2019-03-30T17:02:48.734Z,50.10
2019-03-30T17:05:15.998Z,54.10
2019-03-30T17:07:44.485Z,64.97
2019-03-30T17:10:12.771Z,65.47
2019-03-30T17:12:40.085Z,65.80
2019-03-30T17:15:08.436Z,81.20
2019-03-30T17:17:35.752Z,91.53
2019-03-30T17:20:06.798Z,65.47
2019-03-30T17:22:34.203Z,70.80
2019-03-30T17:25:01.440Z,56.98
2019-03-30T17:27:31.211Z,59.08
2019-03-30T17:29:59.826Z,59.75
2019-03-30T17:32:35.051Z,56.35
2019-03-30T17:35:02.771Z,58.87
2019-03-30T17:37:30.249Z,58.00
2019-03-30T17:39:57.799Z,66.12
2019-03-30T17:42:25.291Z,60.75
2019-03-30T17:44:52.648Z,65.03
2019-03-30T17:47:24.379Z,68.10
2019-03-30T17:49:52.245Z,69.95
2019-03-30T17:52:20.753Z,62.80
2019-03-30T17:54:51.975Z,65.17
2019-03-30T17:57:20.471Z,60.75
2019-03-30T17:59:47.916Z,64.82
2019-03-30T18:02:15.709Z,60.05
2019-03-30T18:04:43.342Z,71.92
2019-03-30T18:07:13.504Z,78.67
2019-03-30T18:09:39.809Z,88.03
2019-03-30T18:12:07.555Z,84.28
2019-03-30T18:14:34.968Z,72.72
2019-03-30T18:17:02.314Z,78.97
2019-03-30T18:19:31.568Z,79.42
2019-03-30T18:21:58.844Z,75.32
2019-03-30T18:24:26.404Z,61.30
2019-03-30T18:26:53.673Z,63.17
2019-03-30T18:29:20.968Z,71.85
2019-03-30T18:31:48.308Z,76.95
2019-03-30T18:34:15.611Z,69.80
2019-03-30T18:36:42.978Z,66.45
2019-03-30T18:39:10.393Z,70.57
2019-03-30T18:41:38.153Z,76.28
2019-03-30T18:44:05.397Z,82.72
2019-03-30T18:46:32.708Z,139.97
2019-03-30T18:48:59.953Z,288.57
2019-03-30T18:51:27.204Z,172.78
2019-03-30T18:53:54.505Z,137.10
2019-03-30T18:56:21.971Z,155.22
2019-03-30T18:58:49.215Z,319.82
2019-03-30T19:01:16.506Z,497.05
2019-03-30T19:03:43.788Z,662.12
2019-03-30T19:06:11.042Z,498.13
2019-03-30T19:08:38.343Z,501.10
2019-03-30T19:11:07.381Z,380.37
2019-03-30T19:13:34.662Z,275.02
2019-03-30T19:16:02.249Z,222.05
2019-03-30T19:18:29.459Z,97.67
2019-03-30T19:20:56.717Z,92.25
2019-03-30T19:23:23.997Z,81.97
2019-03-30T19:25:53.910Z,96.28
2019-03-30T19:28:21.461Z,106.40
2019-03-30T19:30:48.769Z,92.42
2019-03-30T19:33:16.393Z,95.83
2019-03-30T19:35:44.478Z,83.03
2019-03-30T19:38:12.493Z,78.97
2019-03-30T19:40:40.053Z,77.62
2019-03-30T19:43:07.949Z,70.70
2019-03-30T19:45:40.162Z,188.37
2019-03-30T19:48:09.192Z,109.15
2019-03-30T19:50:37.102Z,73.72
2019-03-30T19:53:04.519Z,113.97
2019-03-30T19:55:31.779Z,80.90
2019-03-30T19:57:59.288Z,74.65
2019-03-30T20:00:26.617Z,80.92
2019-03-30T20:02:55.056Z,76.45
2019-03-30T20:05:22.542Z,67.00
2019-03-30T20:07:49.836Z,77.12
2019-03-30T20:10:17.110Z,73.90
2019-03-30T20:12:45.549Z,76.10
2019-03-30T20:15:12.815Z,71.33
2019-03-30T20:17:40.111Z,73.60
2019-03-30T20:20:07.472Z,70.85
2019-03-30T20:22:34.747Z,71.90
2019-03-30T20:25:02.224Z,72.92
2019-03-30T20:27:29.507Z,69.42
2019-03-30T20:29:56.935Z,77.80
2019-03-30T20:32:26.895Z,75.67
2019-03-30T20:34:54.223Z,77.82
2019-03-30T20:37:21.418Z,75.50
2019-03-30T20:39:48.658Z,79.58
2019-03-30T20:42:16.155Z,78.55
2019-03-30T20:44:44.501Z,80.72
2019-03-30T20:47:11.836Z,84.05
2019-03-30T20:49:39.361Z,75.85
2019-03-30T20:52:06.838Z,82.55
2019-03-30T20:54:34.098Z,87.55
2019-03-30T20:57:02.605Z,85.32
2019-03-30T20:59:39.980Z,83.52
2019-03-30T21:01:59.521Z,114.97
2019-03-30T21:04:26.992Z,106.67
2019-03-30T21:09:46.761Z,258.20
2019-03-30T21:12:14.352Z,199.77
2019-03-30T21:14:43.411Z,91.28
2019-03-30T21:17:10.872Z,89.30
2019-03-30T21:19:38.292Z,90.22
2019-03-30T21:22:05.700Z,169.00
2019-03-30T21:24:34.164Z,159.90
2019-03-30T21:27:03.776Z,400.00
2019-03-30T21:29:32.819Z,413.30
2019-03-30T21:32:00.400Z,256.68
2019-03-30T21:34:28.416Z,348.25
2019-03-30T21:36:56.044Z,247.00
2019-03-30T21:39:23.325Z,504.07
2019-03-30T21:41:54.203Z,319.68
2019-03-30T21:44:23.634Z,388.60
2019-03-30T21:46:52.310Z,274.32
2019-03-30T21:49:21.468Z,821.27
2019-03-30T21:51:49.310Z,444.85
2019-03-30T21:54:17.212Z,287.25
2019-03-30T21:56:45.025Z,141.53
2019-03-30T21:59:12.459Z,188.32
2019-03-30T22:01:40.621Z,119.97
2019-03-30T22:04:08.002Z,101.10
2019-03-30T22:06:35.393Z,104.00
2019-03-30T22:09:04.925Z,114.32
2019-03-30T22:11:37.068Z,139.82
2019-03-30T22:14:06.615Z,117.22
2019-03-30T22:16:33.991Z,127.00
2019-03-30T22:19:01.332Z,105.78
2019-03-30T22:21:29.442Z,115.08
2019-03-30T22:23:57.007Z,109.70
2019-03-30T22:26:27.252Z,99.83
2019-03-30T22:28:54.462Z,99.20
2019-03-30T22:31:21.712Z,97.85
2019-03-30T22:33:49.188Z,106.78
2019-03-30T22:36:16.783Z,98.45
2019-03-30T22:38:44.551Z,111.00
2019-03-30T22:41:12.028Z,113.97
2019-03-30T22:43:39.635Z,119.60
2019-03-30T22:46:07.727Z,111.60
2019-03-30T22:48:35.612Z,117.20
2019-03-30T22:51:02.977Z,124.22
2019-03-30T22:53:38.952Z,113.15
2019-03-30T22:56:02.280Z,115.52
2019-03-30T22:58:29.514Z,121.65
2019-03-30T23:00:58.740Z,134.00
2019-03-30T23:03:26.314Z,115.97
2019-03-30T23:11:59.722Z,112.40
2019-03-30T23:14:30.363Z,120.70
2019-03-30T23:16:58.159Z,101.85
2019-03-30T23:19:30.067Z,113.47
2019-03-30T23:21:57.398Z,115.90
2019-03-30T23:24:24.735Z,111.92
2019-03-30T23:26:55.358Z,102.65
2019-03-30T23:29:22.716Z,111.57
2019-03-30T23:31:50.271Z,105.30
2019-03-30T23:34:19.129Z,110.37
2019-03-30T23:36:48.978Z,116.00
2019-03-30T23:39:17.476Z,116.45
2019-03-30T23:41:44.839Z,110.32
2019-03-30T23:44:13.600Z,113.70
2019-03-30T23:46:41.006Z,103.38
2019-03-30T23:49:09.237Z,106.52
2019-03-30T23:51:36.566Z,114.12
2019-03-30T23:54:09.396Z,112.28
2019-03-30T23:56:38.573Z,110.95
2019-03-30T23:59:06.024Z,113.15
